Skip to main content

NOAA/GLERL Met Station at Muskegon, MI

Previous 5 days (top of hour only)
See also Previous 3 Hours (2 minute increments)
Jump down to Data
Switch to [English][Metric]
Zoom: Click and drag, Pan: shift-click and drag, Unzoom: double-click, Unzoom All






Note: Speed = mean wind during 2-minute period at top of hour,
Gust = max wind during 2-minute period at top of hour,
Peak = max wind during entire hour.
• See also 5-day windrose plot


NOAA/GLERL Met Station at Muskegon, MI

Previous 5 days (top of hour only)
See also Previous 3 Hours (2 minute increments)
Jump up to Graphs
Switch to [English][Metric]
                  Wind  Wind  Wind   Air   Dew   Rel     Sta   PAR
                   Spd   Gst   Dir  Temp    Pt   Hum    Pres uE/m2/
YYYY-MM-DD   EDT   kts   kts   deg     F     F     %   in Hg   sec
2024-06-20 00:00 -99.0 -99.0   -99  74.7  68.5  81.0   29.60     2
2024-06-19 23:00 -99.0 -99.0   -99  72.0  66.7  83.5   29.61     2
2024-06-19 22:00 -99.0 -99.0   -99  73.6  65.3  75.6   29.59     2
2024-06-19 21:00 -99.0 -99.0   -99  79.5  66.6  64.5   29.55    21
2024-06-19 20:00 -99.0 -99.0   -99  80.8  66.6  62.0   29.55   502
2024-06-19 19:00 -99.0 -99.0   -99  81.7  66.6  60.0   29.55   956
2024-06-19 18:00 -99.0 -99.0   -99  81.0  67.5  63.8   29.55  1179
2024-06-19 17:00 -99.0 -99.0   -99  77.0  67.3  71.6   29.57  1512
2024-06-19 16:00 -99.0 -99.0   -99  77.0  67.5  72.5   29.58  1675
2024-06-19 15:00 -99.0 -99.0   -99  76.6  67.8  73.9   29.58   832
2024-06-19 14:00 -99.0 -99.0   -99  74.5  67.3  78.4   29.58  1658
2024-06-19 13:00 -99.0 -99.0   -99  74.7  67.3  77.4   29.58  1666
2024-06-19 12:00 -99.0 -99.0   -99  73.9  66.6  77.5   29.57  1644
2024-06-19 11:00 -99.0 -99.0   -99  72.0  66.0  81.3   29.56  1604
2024-06-19 10:00 -99.0 -99.0   -99  70.5  65.3  83.4   29.55  1531
2024-06-19 09:00 -99.0 -99.0   -99  69.3  65.1  86.6   29.54   692
2024-06-19 08:00 -99.0 -99.0   -99  68.5  65.5  89.7   29.51   277
2024-06-19 07:00 -99.0 -99.0   -99  68.9  66.2  91.0   29.49   142
2024-06-19 06:00 -99.0 -99.0   -99  67.6  65.1  91.8   29.49     7
2024-06-19 05:00 -99.0 -99.0   -99  67.8  65.8  93.3   29.47     2
2024-06-19 04:00 -99.0 -99.0   -99  68.7  66.0  91.6   29.46     2
2024-06-19 03:00 -99.0 -99.0   -99  68.4  65.7  91.4   29.45     2
2024-06-19 02:00 -99.0 -99.0   -99  68.9  65.7  89.3   29.45     2
2024-06-19 01:00 -99.0 -99.0   -99  69.3  66.0  89.6   29.44     2
2024-06-19 00:00 -99.0 -99.0   -99  70.2  66.2  86.8   29.41     2
2024-06-18 23:00 -99.0 -99.0   -99  70.2  66.2  87.2   29.37     2
2024-06-18 22:00 -99.0 -99.0   -99  71.1  66.4  85.1   29.35     2
2024-06-18 21:00 -99.0 -99.0   -99  72.1  66.2  81.7   29.34   298
2024-06-18 20:00 -99.0 -99.0   -99  74.5  66.6  76.3   29.34  1118
2024-06-18 19:00 -99.0 -99.0   -99  74.8  66.4  74.6   29.36  1289
2024-06-18 18:00 -99.0 -99.0   -99  75.9  66.9  73.7   29.36  1451
2024-06-18 17:00 -99.0 -99.0   -99  75.0  66.9  75.6   29.38  1536
2024-06-18 16:00 -99.0 -99.0   -99  74.5  66.6  76.4   29.39  1582
2024-06-18 15:00 -99.0 -99.0   -99  73.6  66.2  78.0   29.39  1247
2024-06-18 14:00 -99.0 -99.0   -99  72.7  66.6  80.9   29.39  1768
2024-06-18 13:00 -99.0 -99.0   -99  71.4  66.9  86.0   29.40  2258
2024-06-18 12:00 -99.0 -99.0   -99  71.8  67.5  86.1   29.40  1935
2024-06-18 11:00 -99.0 -99.0   -99  69.4  65.7  88.0   29.40   750
2024-06-18 10:00 -99.0 -99.0   -99  69.6  65.3  86.2   29.39   476
2024-06-18 09:00 -99.0 -99.0   -99  71.2  66.0  83.8   29.37   643
2024-06-18 08:00 -99.0 -99.0   -99  70.0  65.7  86.5   29.36   410
2024-06-18 07:00 -99.0 -99.0   -99  68.9  65.5  88.7   29.35   516
2024-06-18 06:00 -99.0 -99.0   -99  68.5  65.5  89.7   29.33     9
2024-06-18 05:00 -99.0 -99.0   -99  70.0  66.4  88.2   29.31     2
2024-06-18 04:00 -99.0 -99.0   -99  68.7  65.5  89.6   29.31     2
2024-06-18 03:00 -99.0 -99.0   -99  69.1  65.5  88.0   29.31     2
2024-06-18 02:00 -99.0 -99.0   -99  69.6  65.5  86.2   29.32     2
2024-06-18 01:00 -99.0 -99.0   -99  73.0  67.1  81.4   29.31     2
2024-06-18 00:00 -99.0 -99.0   -99  72.3  66.2  81.0   29.31     2
2024-06-17 23:00 -99.0 -99.0   -99  70.5  64.8  81.7   29.29     2
2024-06-17 22:00 -99.0 -99.0   -99  74.5  65.5  73.4   29.27     2
2024-06-17 21:00 -99.0 -99.0   -99  76.5  65.7  69.1   29.27    82
2024-06-17 20:00 -99.0 -99.0   -99  75.7  66.0  71.9   29.27   876
2024-06-17 19:00 -99.0 -99.0   -99  77.5  66.9  69.7   29.27  1271
2024-06-17 18:00 -99.0 -99.0   -99  77.7  67.3  70.4   29.26  1462
2024-06-17 17:00 -99.0 -99.0   -99  75.7  66.4  72.7   29.28  1579
2024-06-17 16:00 -99.0 -99.0   -99  74.3  66.0  75.1   29.30  1643
2024-06-17 15:00 -99.0 -99.0   -99  73.2  65.3  76.4   29.31  1064
2024-06-17 14:00 -99.0 -99.0   -99  71.6  64.9  79.7   29.33  1077
2024-06-17 13:00 -99.0 -99.0   -99  69.8  64.0  82.0   29.33  1753
2024-06-17 12:00 -99.0 -99.0   -99  69.6  64.2  82.7   29.32  1735
2024-06-17 11:00 -99.0 -99.0   -99  68.9  64.0  84.1   29.32  1590
2024-06-17 10:00 -99.0 -99.0   -99  68.7  64.2  85.5   29.31  1508
2024-06-17 09:00 -99.0 -99.0   -99  68.0  64.0  87.1   29.32   554
2024-06-17 08:00 -99.0 -99.0   -99  69.4  64.4  83.8   29.30   683
2024-06-17 07:00 -99.0 -99.0   -99  69.4  65.3  86.6   29.26   233
2024-06-17 06:00 -99.0 -99.0   -99  70.2  65.8  86.1   29.25     9
2024-06-17 05:00 -99.0 -99.0   -99  69.1  65.1  87.1   29.24     2
2024-06-17 04:00 -99.0 -99.0   -99  71.8  65.3  79.9   29.25     2
2024-06-17 03:00 -99.0 -99.0   -99  68.2  62.8  82.7   29.26     2
2024-06-17 02:00 -99.0 -99.0   -99  68.7  63.0  82.2   29.27     2
2024-06-17 01:00 -99.0 -99.0   -99  65.5  61.3  86.6   29.26     2
2024-06-17 00:00 -99.0 -99.0   -99  66.7  60.8  81.2   29.25     2
2024-06-16 23:00 -99.0 -99.0   -99  67.3  61.5  81.7   29.23     2
2024-06-16 22:00 -99.0 -99.0   -99  69.3  62.2  78.2   29.21     2
2024-06-16 21:00 -99.0 -99.0   -99  67.3  61.7  82.1   29.20    60
2024-06-16 20:00 -99.0 -99.0   -99  71.6  62.8  73.8   29.20   169
2024-06-16 19:00 -99.0 -99.0   -99  74.7  62.8  66.4   29.20   778
2024-06-16 18:00 -99.0 -99.0   -99  74.3  61.9  64.8   29.21  1441
2024-06-16 17:00 -99.0 -99.0   -99  75.4  61.7  62.2   29.22  1698
2024-06-16 16:00 -99.0 -99.0   -99  81.0  62.4  53.4   29.23  1500
2024-06-16 15:00 -99.0 -99.0   -99  70.5  64.8  81.9   29.26   800
2024-06-16 14:00 -99.0 -99.0   -99  70.0  63.3  79.4   29.29  1297
2024-06-16 13:00 -99.0 -99.0   -99  73.4  59.5  61.7   29.30   179
2024-06-16 12:00 -99.0 -99.0   -99  71.2  54.5  55.4   29.31   705
2024-06-16 11:00 -99.0 -99.0   -99  70.0  54.5  58.1   29.33  1718
2024-06-16 10:00 -99.0 -99.0   -99  71.1  52.7  52.1   29.36  1607
2024-06-16 09:00 -99.0 -99.0   -99  72.5  49.5  44.3   29.36  1319
2024-06-16 08:00 -99.0 -99.0   -99  69.8  48.6  46.8   29.36   842
2024-06-16 07:00 -99.0 -99.0   -99  68.4  47.7  47.4   29.37   608
2024-06-16 06:00 -99.0 -99.0   -99  68.5  46.2  44.8   29.37     7
2024-06-16 05:00 -99.0 -99.0   -99  69.4  46.4  43.6   29.36     2
2024-06-16 04:00 -99.0 -99.0   -99  70.3  47.8  44.8   29.38     2
2024-06-16 03:00 -99.0 -99.0   -99  71.2  49.1  45.4   29.39     2
2024-06-16 02:00 -99.0 -99.0   -99  71.6  50.9  47.7   29.40     2
2024-06-16 01:00 -99.0 -99.0   -99  72.7  52.5  49.1   29.40     2
2024-06-16 00:00 -99.0 -99.0   -99  74.1  54.0  49.2   29.39     2
2024-06-15 23:00 -99.0 -99.0   -99  75.4  55.0  49.0   29.39     2
2024-06-15 22:00 -99.0 -99.0   -99  76.1  55.2  48.5   29.40     2
2024-06-15 21:00 -99.0 -99.0   -99  77.2  56.3  48.5   29.38    27
2024-06-15 20:00 -99.0 -99.0   -99  74.7  56.5  53.2   29.41   181